createdAt,value
2022-11-28T00:01:24.691Z,4.60
2022-11-28T00:03:51.985Z,4.45
2022-11-28T00:06:19.277Z,4.20
2022-11-28T00:08:46.495Z,4.67
2022-11-28T00:11:15.957Z,4.20
2022-11-28T00:13:43.115Z,4.53
2022-11-28T00:16:15.420Z,4.50
2022-11-28T00:18:42.493Z,3.83
2022-11-28T00:21:12.297Z,4.20
2022-11-28T00:23:39.974Z,4.53
2022-11-28T00:26:11.874Z,4.20
2022-11-28T00:28:38.942Z,4.18
2022-11-28T00:31:06.116Z,3.97
2022-11-28T00:33:33.558Z,4.10
2022-11-28T00:36:02.921Z,4.07
2022-11-28T00:38:30.246Z,3.67
2022-11-28T00:41:09.863Z,4.82
2022-11-28T00:43:37.437Z,3.83
2022-11-28T00:46:04.523Z,3.97
2022-11-28T00:48:33.003Z,4.03
2022-11-28T00:51:11.215Z,4.40
2022-11-28T00:53:40.664Z,4.80
2022-11-28T00:56:08.290Z,5.05
2022-11-28T00:58:36.020Z,4.03
2022-11-28T01:01:18.249Z,3.92
2022-11-28T01:03:48.070Z,4.57
2022-11-28T01:06:22.600Z,4.60
2022-11-28T01:08:49.788Z,4.55
2022-11-28T01:11:16.757Z,4.60
2022-11-28T01:13:43.560Z,4.07
2022-11-28T01:16:10.954Z,4.50
2022-11-28T01:18:38.673Z,4.57
2022-11-28T01:21:07.727Z,4.38
2022-11-28T01:23:35.301Z,4.53
2022-11-28T01:26:03.737Z,4.03
2022-11-28T01:28:30.575Z,4.10
2022-11-28T01:30:57.376Z,3.78
2022-11-28T01:33:24.201Z,4.40
2022-11-28T01:35:55.948Z,3.90
2022-11-28T01:38:23.273Z,4.10
2022-11-28T01:40:50.836Z,3.75
2022-11-28T01:43:18.341Z,4.30
2022-11-28T01:45:45.696Z,3.53
2022-11-28T01:48:18.399Z,3.57
2022-11-28T01:50:50.108Z,4.20
2022-11-28T01:53:17.832Z,3.70
2022-11-28T01:55:54.652Z,3.45
2022-11-28T01:58:21.971Z,3.67
2022-11-28T02:00:49.249Z,3.47
2022-11-28T02:03:42.297Z,3.47
2022-11-28T02:06:10.498Z,3.40
2022-11-28T02:08:37.666Z,3.75
2022-11-28T02:11:29.789Z,3.78
2022-11-28T02:14:14.726Z,3.90
2022-11-28T02:16:59.487Z,3.65
2022-11-28T02:20:04.466Z,3.47
2022-11-28T02:22:36.485Z,3.75
2022-11-28T02:25:44.536Z,3.67
2022-11-28T02:28:17.397Z,3.50
2022-11-28T02:31:07.872Z,3.50
2022-11-28T02:33:43.696Z,3.58
2022-11-28T02:36:28.790Z,3.42
2022-11-28T02:39:27.760Z,3.67
2022-11-28T02:42:09.487Z,3.13
2022-11-28T02:45:15.739Z,3.45
2022-11-28T02:47:54.808Z,3.47
2022-11-28T02:50:53.283Z,3.08
2022-11-28T02:53:23.808Z,3.85
2022-11-28T02:55:52.606Z,3.20
2022-11-28T02:58:19.390Z,3.17
2022-11-28T03:00:50.663Z,3.00
2022-11-28T03:03:38.006Z,3.13
2022-11-28T03:06:21.533Z,3.05
2022-11-28T03:09:26.356Z,2.73
2022-11-28T03:12:02.243Z,3.00
2022-11-28T03:14:41.971Z,3.38
2022-11-28T03:17:18.159Z,3.45
2022-11-28T03:20:17.216Z,2.92
2022-11-28T03:22:55.895Z,2.90
2022-11-28T03:25:40.582Z,3.50
2022-11-28T03:28:49.736Z,2.80
2022-11-28T03:31:22.315Z,2.72
2022-11-28T03:33:54.794Z,2.78
2022-11-28T03:36:29.549Z,3.27
2022-11-28T03:39:11.269Z,3.20
2022-11-28T03:41:46.800Z,3.10
2022-11-28T03:44:27.485Z,2.45
2022-11-28T03:46:57.077Z,3.38
2022-11-28T03:49:33.044Z,3.00
2022-11-28T03:52:04.322Z,3.03
2022-11-28T03:54:40.665Z,3.42
2022-11-28T03:57:19.389Z,3.03
2022-11-28T03:59:54.448Z,3.25
2022-11-28T04:02:27.123Z,3.83
2022-11-28T04:05:12.077Z,3.97
2022-11-28T04:08:29.011Z,3.08
2022-11-28T04:11:12.900Z,3.42
2022-11-28T04:13:45.688Z,3.25
2022-11-28T04:16:37.326Z,3.70
2022-11-28T04:19:12.897Z,3.40
2022-11-28T04:21:44.509Z,3.25
2022-11-28T04:24:17.317Z,3.35
2022-11-28T04:26:48.957Z,3.22
2022-11-28T04:29:20.790Z,3.90
2022-11-28T04:31:50.913Z,3.55
2022-11-28T04:34:20.404Z,3.42
2022-11-28T04:36:49.990Z,3.75
2022-11-28T04:39:21.319Z,3.90
2022-11-28T04:42:05.614Z,3.60
2022-11-28T04:44:47.567Z,4.15
2022-11-28T04:47:14.696Z,3.88
2022-11-28T04:49:41.811Z,3.75
2022-11-28T04:52:57.329Z,3.95
2022-11-28T04:55:30.123Z,3.40
2022-11-28T04:58:13.397Z,3.55
2022-11-28T05:00:41.251Z,3.60
2022-11-28T05:03:09.815Z,3.22
2022-11-28T05:05:51.073Z,3.65
2022-11-28T05:08:20.322Z,3.73
2022-11-28T05:10:47.804Z,3.33
2022-11-28T05:13:15.124Z,3.42
2022-11-28T05:15:42.043Z,2.97
2022-11-28T05:18:09.478Z,3.55
2022-11-28T05:20:38.291Z,3.77
2022-11-28T05:23:05.328Z,4.88
2022-11-28T05:25:32.273Z,4.30
2022-11-28T05:27:59.069Z,3.70
2022-11-28T05:30:25.912Z,3.97
2022-11-28T05:32:52.783Z,3.70
2022-11-28T05:35:19.627Z,3.22
2022-11-28T05:37:46.456Z,3.78
2022-11-28T05:40:13.381Z,3.88
2022-11-28T05:42:40.169Z,3.65
2022-11-28T05:45:07.587Z,3.97
2022-11-28T05:47:34.614Z,3.60
2022-11-28T05:50:01.405Z,3.67
2022-11-28T05:52:32.548Z,3.40
2022-11-28T05:55:00.431Z,3.72
2022-11-28T05:57:30.071Z,3.67
2022-11-28T05:59:57.539Z,3.53
2022-11-28T06:02:25.393Z,3.90
2022-11-28T06:04:52.275Z,3.30
2022-11-28T06:07:20.070Z,3.75
2022-11-28T06:09:47.202Z,3.40
2022-11-28T06:12:14.016Z,3.30
2022-11-28T06:14:40.837Z,3.63
2022-11-28T06:17:07.740Z,3.33
2022-11-28T06:19:34.640Z,3.72
2022-11-28T06:22:01.457Z,3.57
2022-11-28T06:24:28.409Z,3.60
2022-11-28T06:26:55.437Z,3.45
2022-11-28T06:29:22.571Z,4.07
2022-11-28T06:31:49.283Z,3.47
2022-11-28T06:34:16.581Z,3.27
2022-11-28T06:36:45.353Z,3.75
2022-11-28T06:39:15.409Z,3.65
2022-11-28T06:41:43.115Z,3.95
2022-11-28T06:44:15.201Z,3.60
2022-11-28T06:46:43.049Z,3.33
2022-11-28T06:49:13.690Z,3.35
2022-11-28T06:51:41.734Z,3.53
2022-11-28T06:54:09.470Z,4.38
2022-11-28T06:56:36.496Z,3.40
2022-11-28T06:59:03.313Z,3.80
2022-11-28T07:01:31.524Z,4.10
2022-11-28T07:03:58.477Z,3.75
2022-11-28T07:06:26.886Z,3.88
2022-11-28T07:08:53.925Z,4.18
2022-11-28T07:11:27.772Z,4.07
2022-11-28T07:13:55.719Z,4.18
2022-11-28T07:16:25.096Z,3.92
2022-11-28T07:18:53.051Z,4.60
2022-11-28T07:21:20.458Z,3.80
2022-11-28T07:23:47.963Z,4.20
2022-11-28T07:26:16.998Z,4.00
2022-11-28T07:28:45.205Z,4.57
2022-11-28T07:31:14.777Z,3.90
2022-11-28T07:33:44.023Z,4.50
2022-11-28T07:36:16.946Z,4.07
2022-11-28T07:38:47.719Z,4.00
2022-11-28T07:41:15.328Z,4.65
2022-11-28T07:43:43.535Z,4.28
2022-11-28T07:46:13.641Z,4.63
2022-11-28T07:48:40.499Z,4.63
2022-11-28T07:51:09.477Z,4.60
2022-11-28T07:53:36.988Z,4.28
2022-11-28T07:56:08.894Z,4.40
2022-11-28T07:58:36.446Z,5.07
2022-11-28T08:01:11.349Z,4.57
2022-11-28T08:03:38.527Z,5.60
2022-11-28T08:06:05.898Z,5.22
2022-11-28T08:08:33.020Z,5.70
2022-11-28T08:11:03.077Z,5.47
2022-11-28T08:13:30.173Z,6.13
2022-11-28T08:15:57.288Z,5.10
2022-11-28T08:18:24.125Z,5.63
2022-11-28T08:20:54.203Z,5.70
2022-11-28T08:23:21.175Z,5.90
2022-11-28T08:25:47.958Z,5.77
2022-11-28T08:28:14.753Z,5.85
2022-11-28T08:30:44.096Z,5.15
2022-11-28T08:33:11.427Z,5.13
2022-11-28T08:35:40.445Z,5.80
2022-11-28T08:38:07.292Z,5.43
2022-11-28T08:40:34.118Z,6.25
2022-11-28T08:43:01.048Z,5.57
2022-11-28T08:45:27.805Z,5.72
2022-11-28T08:47:54.667Z,5.10
2022-11-28T08:50:21.544Z,5.17
2022-11-28T08:52:48.553Z,5.28
2022-11-28T08:55:15.522Z,5.30
2022-11-28T08:57:42.279Z,6.05
2022-11-28T09:00:10.198Z,5.63
2022-11-28T09:02:37.037Z,5.80
2022-11-28T09:05:04.137Z,5.13
2022-11-28T09:07:31.209Z,4.88
2022-11-28T09:09:58.157Z,4.50
2022-11-28T09:12:25.152Z,4.78
2022-11-28T09:14:52.103Z,4.77
2022-11-28T09:17:19.051Z,4.53
2022-11-28T09:19:46.052Z,4.95
2022-11-28T09:22:12.960Z,5.18
2022-11-28T09:24:40.286Z,4.95
2022-11-28T09:27:07.182Z,4.40
2022-11-28T09:29:34.097Z,4.78
2022-11-28T09:32:00.934Z,4.43
2022-11-28T09:34:28.041Z,5.13
2022-11-28T09:36:54.896Z,5.50
2022-11-28T09:39:21.705Z,5.23
2022-11-28T09:42:08.692Z,5.50
2022-11-28T09:44:43.529Z,5.00
2022-11-28T09:47:35.134Z,5.55
2022-11-28T09:50:10.760Z,5.38
2022-11-28T09:52:49.452Z,5.70
2022-11-28T09:55:24.976Z,5.50
2022-11-28T09:57:53.561Z,6.20
2022-11-28T10:00:35.126Z,6.25
2022-11-28T10:03:35.257Z,7.07
2022-11-28T10:06:16.187Z,6.93
2022-11-28T10:09:04.842Z,7.55
2022-11-28T10:11:55.881Z,9.35
2022-11-28T10:14:31.782Z,8.05
2022-11-28T10:17:34.535Z,8.32
2022-11-28T10:20:23.259Z,7.97
2022-11-28T10:22:59.436Z,9.00
2022-11-28T10:25:34.277Z,8.77
2022-11-28T10:28:04.091Z,8.60
2022-11-28T10:30:37.748Z,9.23
2022-11-28T10:33:17.152Z,9.93
2022-11-28T10:35:51.397Z,9.68
2022-11-28T10:38:21.124Z,9.18
2022-11-28T10:41:11.093Z,10.60
2022-11-28T10:44:05.406Z,10.10
2022-11-28T10:46:45.889Z,10.10
2022-11-28T10:49:24.918Z,11.20
2022-11-28T10:51:58.236Z,11.63
2022-11-28T10:54:34.101Z,11.88
2022-11-28T10:57:15.701Z,11.35
2022-11-28T11:00:09.893Z,11.80
2022-11-28T11:02:38.778Z,11.80
2022-11-28T11:05:06.872Z,11.82
2022-11-28T11:07:34.691Z,11.30
2022-11-28T11:10:23.743Z,12.23
2022-11-28T11:12:55.294Z,11.27
2022-11-28T11:15:32.492Z,12.10
2022-11-28T11:18:05.651Z,11.90
2022-11-28T11:20:36.149Z,12.27
2022-11-28T11:23:15.686Z,11.95
2022-11-28T11:25:51.457Z,12.03
2022-11-28T11:28:44.329Z,10.93
2022-11-28T11:31:44.864Z,10.88
2022-11-28T11:34:18.235Z,12.02
2022-11-28T11:36:45.508Z,11.50
2022-11-28T11:39:12.665Z,11.33
2022-11-28T11:41:44.956Z,12.25
2022-11-28T11:44:14.771Z,12.00
2022-11-28T11:46:51.522Z,11.40
2022-11-28T11:49:33.879Z,11.43
2022-11-28T11:52:04.458Z,11.63
2022-11-28T11:54:31.802Z,11.38
2022-11-28T11:57:24.982Z,11.93
2022-11-28T11:59:52.821Z,11.88
2022-11-28T12:02:49.607Z,12.20
2022-11-28T12:05:18.487Z,11.07
2022-11-28T12:07:51.321Z,11.75
2022-11-28T12:10:22.500Z,11.75
2022-11-28T12:12:49.395Z,12.15
2022-11-28T12:15:25.712Z,10.73
2022-11-28T12:17:59.161Z,11.80
2022-11-28T12:20:41.236Z,12.00
2022-11-28T12:23:32.708Z,11.13
2022-11-28T12:26:10.279Z,10.73
2022-11-28T12:29:01.417Z,10.35
2022-11-28T12:31:48.526Z,11.33
2022-11-28T12:34:34.544Z,10.35
2022-11-28T12:37:13.452Z,10.68
2022-11-28T12:39:46.495Z,10.57
2022-11-28T12:42:13.610Z,10.68
2022-11-28T12:45:16.199Z,11.40
2022-11-28T12:48:03.574Z,11.23
2022-11-28T12:50:35.869Z,11.13
2022-11-28T12:56:17.446Z,11.57
2022-11-28T12:58:54.513Z,11.40
2022-11-28T13:01:48.512Z,10.95
2022-11-28T13:08:08.451Z,10.50
2022-11-28T13:13:52.906Z,10.73
2022-11-28T13:16:31.949Z,10.90
2022-11-28T13:19:11.556Z,11.65
2022-11-28T13:22:04.395Z,11.15
2022-11-28T13:25:02.644Z,11.02
2022-11-28T13:27:41.580Z,11.37
2022-11-28T13:30:22.621Z,11.40
2022-11-28T13:33:10.999Z,11.40
2022-11-28T13:35:41.950Z,11.25
2022-11-28T13:38:39.273Z,10.73
2022-11-28T13:46:51.592Z,11.50
2022-11-28T13:49:30.603Z,11.60
2022-11-28T13:52:19.232Z,12.23
2022-11-28T13:54:54.006Z,12.00
2022-11-28T13:57:39.910Z,11.75
2022-11-28T14:00:27.930Z,12.00
2022-11-28T14:03:00.089Z,12.60
2022-11-28T14:05:37.275Z,11.68
2022-11-28T14:08:05.942Z,12.10
2022-11-28T14:11:01.999Z,12.23
2022-11-28T14:14:01.237Z,12.68
2022-11-28T14:16:54.169Z,11.60
2022-11-28T14:19:39.280Z,10.98
2022-11-28T14:22:06.054Z,11.03
2022-11-28T14:24:45.180Z,11.75
2022-11-28T14:27:20.120Z,12.07
2022-11-28T14:29:51.219Z,10.80
2022-11-28T14:32:41.069Z,11.18
2022-11-28T14:35:50.947Z,10.53
2022-11-28T14:38:35.740Z,10.07
2022-11-28T14:41:06.475Z,10.70
2022-11-28T14:43:37.892Z,11.20
2022-11-28T14:46:26.183Z,10.98
2022-11-28T14:48:59.350Z,10.20
2022-11-28T14:51:44.501Z,11.30
2022-11-28T14:54:42.291Z,10.82
2022-11-28T14:57:20.655Z,9.75
2022-11-28T14:59:48.579Z,10.52
2022-11-28T15:02:36.700Z,10.50
2022-11-28T15:05:23.065Z,11.13
2022-11-28T15:08:16.185Z,10.48
2022-11-28T15:11:01.295Z,10.38
2022-11-28T15:13:49.906Z,9.07
2022-11-28T15:16:20.133Z,9.77
2022-11-28T15:18:54.086Z,10.10
2022-11-28T15:21:22.783Z,9.50
2022-11-28T15:23:50.310Z,10.43
2022-11-28T15:26:21.855Z,9.80
2022-11-28T15:28:48.838Z,10.30
2022-11-28T15:31:25.180Z,10.07
2022-11-28T15:33:52.089Z,10.10
2022-11-28T15:36:28.205Z,9.65
2022-11-28T15:38:56.401Z,9.68
2022-11-28T15:41:25.538Z,9.60
2022-11-28T15:43:54.500Z,9.32
2022-11-28T15:46:31.782Z,9.05
2022-11-28T15:48:58.887Z,10.50
2022-11-28T15:51:34.260Z,10.82
2022-11-28T15:54:05.406Z,9.23
2022-11-28T15:56:34.911Z,10.48
2022-11-28T15:59:02.001Z,10.93
2022-11-28T16:01:31.071Z,10.38
2022-11-28T16:04:13.651Z,10.07
2022-11-28T16:06:43.190Z,9.37
2022-11-28T16:09:35.155Z,10.45
2022-11-28T16:12:04.707Z,9.02
2022-11-28T16:14:34.855Z,9.00
2022-11-28T16:17:07.504Z,9.95
2022-11-28T16:19:38.101Z,10.30
2022-11-28T16:22:09.125Z,10.88
2022-11-28T16:24:48.553Z,9.75
2022-11-28T16:27:34.928Z,9.18
2022-11-28T16:30:23.426Z,11.82
2022-11-28T16:32:52.120Z,9.17
2022-11-28T16:35:41.793Z,10.40
2022-11-28T16:38:16.697Z,9.25
2022-11-28T16:40:44.078Z,9.45
2022-11-28T16:43:32.720Z,11.93
2022-11-28T16:46:02.753Z,9.80
2022-11-28T16:48:34.311Z,10.27
2022-11-28T16:51:13.399Z,10.52
2022-11-28T16:53:44.812Z,9.35
2022-11-28T16:56:29.790Z,9.32
2022-11-28T16:59:16.810Z,9.77
2022-11-28T17:01:49.556Z,9.75
2022-11-28T17:04:22.588Z,10.68
2022-11-28T17:06:50.435Z,9.50
2022-11-28T17:09:18.240Z,9.38
2022-11-28T17:12:08.715Z,11.07
2022-11-28T17:14:37.678Z,10.63
2022-11-28T17:17:12.215Z,11.95
2022-11-28T17:19:39.263Z,9.40
2022-11-28T17:22:07.716Z,10.77
2022-11-28T17:24:36.097Z,10.80
2022-11-28T17:27:04.014Z,12.30
2022-11-28T17:29:30.877Z,9.98
2022-11-28T17:31:59.071Z,9.35
2022-11-28T17:34:28.469Z,9.50
2022-11-28T17:36:55.368Z,11.00
2022-11-28T17:39:22.244Z,9.82
2022-11-28T17:41:51.885Z,11.00
2022-11-28T17:44:21.517Z,11.18
2022-11-28T17:46:50.535Z,9.60
2022-11-28T17:49:17.876Z,10.43
2022-11-28T17:51:44.832Z,10.05
2022-11-28T17:54:16.457Z,9.68
2022-11-28T17:56:44.612Z,9.32
2022-11-28T17:59:16.299Z,9.07
2022-11-28T18:01:44.242Z,10.10
2022-11-28T18:04:11.754Z,8.70
2022-11-28T18:06:39.033Z,9.65
2022-11-28T18:09:11.671Z,9.50
2022-11-28T18:11:39.446Z,10.20
2022-11-28T18:14:06.653Z,8.47
2022-11-28T18:16:35.741Z,7.03
2022-11-28T18:19:03.975Z,7.13
2022-11-28T18:21:31.199Z,7.43
2022-11-28T18:23:57.980Z,7.63
2022-11-28T18:26:26.338Z,7.83
2022-11-28T18:28:54.319Z,7.80
2022-11-28T18:31:23.564Z,6.97
2022-11-28T18:33:50.942Z,6.78
2022-11-28T18:36:23.587Z,5.55
2022-11-28T18:38:54.571Z,5.73
2022-11-28T18:41:21.514Z,7.97
2022-11-28T18:43:48.461Z,7.35
2022-11-28T18:46:21.112Z,5.90
2022-11-28T18:48:48.283Z,5.55
2022-11-28T18:51:17.945Z,6.47
2022-11-28T18:53:46.247Z,8.10
2022-11-28T18:56:14.264Z,8.00
2022-11-28T18:58:43.652Z,6.15
2022-11-28T19:01:16.761Z,6.57
2022-11-28T19:03:48.279Z,7.67
2022-11-28T19:06:15.505Z,8.48
2022-11-28T19:08:42.972Z,8.32
2022-11-28T19:11:13.472Z,7.53
2022-11-28T19:13:41.920Z,6.55
2022-11-28T19:16:18.387Z,8.13
2022-11-28T19:18:45.690Z,9.68
2022-11-28T19:21:15.337Z,8.38
2022-11-28T19:23:42.359Z,9.90
2022-11-28T19:26:12.282Z,9.57
2022-11-28T19:28:40.725Z,8.87
2022-11-28T19:31:12.933Z,9.48
2022-11-28T19:33:39.799Z,8.82
2022-11-28T19:36:08.653Z,7.72
2022-11-28T19:38:36.573Z,8.77
2022-11-28T19:41:15.112Z,9.20
2022-11-28T19:43:41.893Z,8.35
2022-11-28T19:46:09.684Z,8.20
2022-11-28T19:48:38.128Z,8.77
2022-11-28T19:51:06.050Z,9.48
2022-11-28T19:53:34.201Z,11.23
2022-11-28T19:56:06.226Z,12.55
2022-11-28T19:58:35.418Z,12.10
2022-11-28T20:01:16.751Z,12.50
2022-11-28T20:03:44.311Z,12.98
2022-11-28T20:06:14.524Z,12.73
2022-11-28T20:08:41.898Z,13.27
2022-11-28T20:11:11.334Z,13.65
2022-11-28T20:13:38.200Z,13.65
2022-11-28T20:16:07.407Z,14.50
2022-11-28T20:18:37.182Z,14.10
2022-11-28T20:21:08.497Z,15.45
2022-11-28T20:23:44.438Z,13.75
2022-11-28T20:26:13.241Z,14.05
2022-11-28T20:28:41.804Z,14.73
2022-11-28T20:31:27.443Z,13.00
2022-11-28T20:33:54.746Z,13.60
2022-11-28T20:36:23.502Z,14.90
2022-11-28T20:38:51.651Z,13.10
2022-11-28T20:41:20.421Z,13.25
2022-11-28T20:43:47.968Z,13.23
2022-11-28T20:46:16.367Z,13.63
2022-11-28T20:48:44.022Z,13.88
2022-11-28T20:51:13.732Z,14.63
2022-11-28T20:53:41.624Z,14.85
2022-11-28T20:56:12.411Z,14.50
2022-11-28T20:58:39.689Z,14.52
2022-11-28T21:01:07.042Z,13.25
2022-11-28T21:03:34.495Z,14.70
2022-11-28T21:06:01.775Z,14.43
2022-11-28T21:08:31.489Z,14.00
2022-11-28T21:10:58.209Z,14.52
2022-11-28T21:13:25.377Z,13.48
2022-11-28T21:15:53.603Z,14.00
2022-11-28T21:18:20.547Z,13.48
2022-11-28T21:20:47.413Z,12.87
2022-11-28T21:23:17.353Z,14.43
2022-11-28T21:25:45.830Z,12.85
2022-11-28T21:28:12.935Z,13.40
2022-11-28T21:30:42.717Z,12.32
2022-11-28T21:33:11.561Z,14.30
2022-11-28T21:35:39.411Z,14.85
2022-11-28T21:38:07.394Z,13.23
2022-11-28T21:40:34.288Z,14.18
2022-11-28T21:43:01.076Z,15.55
2022-11-28T21:45:27.948Z,13.97
2022-11-28T21:47:54.917Z,12.70
2022-11-28T21:50:21.665Z,13.35
2022-11-28T21:52:48.541Z,14.23
2022-11-28T21:55:15.506Z,14.15
2022-11-28T21:57:42.438Z,14.43
2022-11-28T22:00:25.654Z,13.73
2022-11-28T22:03:02.954Z,14.38
2022-11-28T22:05:32.988Z,14.55
2022-11-28T22:08:00.346Z,15.30
2022-11-28T22:10:27.472Z,15.30
2022-11-28T22:12:54.169Z,15.50
2022-11-28T22:15:21.066Z,15.45
2022-11-28T22:17:47.922Z,15.77
2022-11-28T22:20:14.741Z,15.48
2022-11-28T22:22:41.598Z,16.37
2022-11-28T22:25:08.530Z,14.05
2022-11-28T22:27:38.248Z,15.65
2022-11-28T22:30:07.483Z,15.77
2022-11-28T22:32:34.267Z,15.40
2022-11-28T22:35:02.813Z,16.57
2022-11-28T22:37:29.684Z,16.58
2022-11-28T22:39:56.462Z,16.25
2022-11-28T22:42:23.295Z,15.73
2022-11-28T22:44:50.131Z,15.82
2022-11-28T22:47:17.035Z,15.20
2022-11-28T22:49:43.931Z,15.35
2022-11-28T22:52:10.773Z,16.30
2022-11-28T22:54:37.574Z,15.10
2022-11-28T22:57:04.545Z,14.52
2022-11-28T22:59:33.879Z,16.27
2022-11-28T23:02:01.471Z,16.00
2022-11-28T23:04:28.398Z,17.52
2022-11-28T23:06:55.352Z,16.52
2022-11-28T23:09:22.455Z,18.00
2022-11-28T23:11:49.331Z,16.43
2022-11-28T23:14:16.109Z,16.92
2022-11-28T23:16:44.507Z,16.67
2022-11-28T23:19:15.671Z,18.00
2022-11-28T23:21:45.925Z,17.63
2022-11-28T23:24:18.896Z,18.30
2022-11-28T23:26:46.520Z,16.77
2022-11-28T23:29:14.220Z,18.48
2022-11-28T23:31:42.627Z,16.77
2022-11-28T23:34:10.676Z,17.02
2022-11-28T23:36:47.790Z,17.83
2022-11-28T23:39:20.223Z,15.82
2022-11-28T23:41:47.667Z,16.67
2022-11-28T23:44:16.008Z,17.67
2022-11-28T23:46:43.290Z,16.58
2022-11-28T23:49:10.969Z,17.13
2022-11-28T23:51:40.219Z,18.00
2022-11-28T23:54:08.077Z,17.98
2022-11-28T23:56:36.350Z,17.25
2022-11-28T23:59:06.543Z,17.30
